Roby, Missouri
Current Conditions -  °F | °C
As of 3:40 PM on Wednesday 26 Nov 2014 (Local Time) from KTBN Reporting Station
Overcast Overcast  
Wind Chill: 33°   Ceiling: 2900
Heat Index: 37°   Visibility: 10mi
Dew Point: 37°   Wind: 6mph
Humidity: 100%   Direction: 300°WNW
Pressure: 30.01"   Gusts: NA
Location:  37.52°N, 92.14°W
Report Text: KTBN 262140Z AUTO 30005KT 10SM FEW011 SCT017 BKN029 OVC039 03/03 A3001 RMK AO2 RAB2111E2137DZB2137E2140 CIG 016V029
Loading
Personal Weather Stations






























Interactive Weather Map New forecast layout! Learn more

10-Day Weather Forecast

Advertisements
Track Severe Weather on mobile